Springdale, MT

12:42 AM MDT on August 22, 2014 (GMT -0600)
Mission | Change Station
CLOSE
Current Station
Airport
Location: Livingston,
Elevation: 4656 ft
Nearby Weather Stations

Elev 4656 ft 45.70 °N, 110.44 °W | Updated 49 minutes ago

Light Rain
Light Rain
56 °F
Feels Like 56 °F
N
4
Wind Variable Wind from ESE

Today
High -- | Low -- °F
--% Chance of Precip.
Yesterday
High -- | Low -- °F
Precip. -- in
6:29 AM 8:16 PM
Waning Crescent, 10% visible
Pressure 30.04 in
Visibility 10.0 miles
Clouds Overcast 9000 ft
Dew Point 53 °F
Humidity 90%
Rainfall 0.31 in
Snow Depth Not available.
UV 0 out of 12
Pollen 4.30 out of 12
Air Quality Not available.
Flu Activity Not available.
METAR KLVM 220553Z AUTO 12003KT 10SM -RA OVC090 13/12 A3012 RMK AO2 SLP171 P0012 60018 T01330117 10183 20133 50001

More Conditions Fewer Conditions

Pressure 30.04 in
Visibility 10.0 miles
Clouds Overcast 9000 ft
Dew Point 53 °F
Humidity 90%
Rainfall 0.31 in
Snow Depth Not available.
UV 0 out of 12
Pollen 4.30 out of 12
Air Quality Not available.
Flu Activity Not available.
METAR KLVM 220553Z AUTO 12003KT 10SM -RA OVC090 13/12 A3012 RMK AO2 SLP171 P0012 60018 T01330117 10183 20133 50001

More Conditions Fewer Conditions

10-Day Weather Forecast

Almanac

Astronomy

Aug. 22, 2014 Rise Set
Actual Time 6:29 AM MDT 8:16 PM MDT
Civil Twilight 5:58 AM MDT 8:48 PM MDT
Nautical Twilight 5:19 AM MDT 9:26 PM MDT
Astronomical Twilight 4:37 AM MDT 10:08 PM MDT
Moon 3:51 AM MDT 6:30 PM MDT
Length of Visible Light 14h 50m
Length of Day
13h 47m
Tomorrow will be 2m 59s shorter.
Waning Crescent, 10% of the Moon is Illuminated
Today
Waning Crescent
Aug 25
New
Sep 2
First Quarter
Sep 8
Full
Sep 15
Last Quarter

Today's Extremes

State Highs State Lows

Community

WunderPhotos

Upload Photos

1,746,131 photos uploaded!

Nearby

Snow Depth

Station Depth Elevation
Placer Basin 0 in 8830 ft
South Fork Shields 0 in 8100 ft
Porcupine 1 in 6500 ft
Sacajawea 0 in 6550 ft
Monument Peak 0 in 8850 ft

Earthquake Activity

City Distance Mag. Time & Date
No recent earthquake activity has been reported nearby.
Minimum magnitude displayed is 2.5.

Coastal Water Temperatures

Place Temperature
No Stations Reporting

Nearby Weather Stations